Time;durP1;ratioP1;P1;durP2;ratioP2;P2;SDS_P1;SDS_P2;PMS_P1;PMS_P2;Temp;Humidity;BMP_temperature;BMP_pressure;BME280_temperature;BME280_humidity;BME280_pressure;Samples;Min_cycle;Max_cycle;Signal;HPM_P1;HPM_P2
2021/09/13 00:00:06;;;;;;;14.80;11.07;;;15.00;99.90;;;;;;5069303;28;20028;-44
2021/09/13 00:02:32;;;;;;;20.65;12.73;;;15.00;99.90;;;;;;5069204;28;20020;-44
2021/09/13 00:04:57;;;;;;;12.23;10.93;;;15.00;99.90;;;;;;5067967;28;20075;-44
2021/09/13 00:07:23;;;;;;;15.52;13.20;;;15.00;99.90;;;;;;5058506;28;20033;-43
2021/09/13 00:09:48;;;;;;;17.98;12.73;;;15.00;99.90;;;;;;5055355;28;20036;-43
2021/09/13 00:12:14;;;;;;;15.75;12.23;;;15.00;99.90;;;;;;5060725;28;20024;-43
2021/09/13 00:14:40;;;;;;;20.95;14.38;;;15.00;99.90;;;;;;5060717;28;20020;-44
2021/09/13 00:17:05;;;;;;;18.67;12.45;;;15.00;99.90;;;;;;5068448;28;20190;-44
2021/09/13 00:19:31;;;;;;;17.02;12.60;;;15.00;99.90;;;;;;5069385;28;20045;-44
2021/09/13 00:21:56;;;;;;;14.00;12.40;;;15.00;99.90;;;;;;5068581;28;20312;-43
2021/09/13 00:24:23;;;;;;;17.30;14.63;;;14.90;99.90;;;;;;5067470;28;20162;-43
2021/09/13 00:26:49;;;;;;;15.88;12.25;;;14.90;99.90;;;;;;5067848;28;20016;-43
2021/09/13 00:29:14;;;;;;;16.42;12.93;;;14.90;99.90;;;;;;5068835;28;20036;-44
2021/09/13 00:31:40;;;;;;;12.70;11.27;;;14.90;99.90;;;;;;5068753;28;20020;-44
2021/09/13 00:34:05;;;;;;;17.52;13.75;;;14.90;99.90;;;;;;5068789;28;20035;-43
2021/09/13 00:36:31;;;;;;;18.15;14.80;;;14.80;99.90;;;;;;5067003;28;20028;-43
2021/09/13 00:38:56;;;;;;;16.48;14.50;;;14.80;99.90;;;;;;5068888;28;20032;-44
2021/09/13 00:41:22;;;;;;;16.73;13.23;;;14.80;99.90;;;;;;5067565;28;20525;-44
2021/09/13 00:43:48;;;;;;;17.40;14.50;;;14.80;99.90;;;;;;5054236;28;20195;-44
2021/09/13 00:46:13;;;;;;;20.45;14.15;;;14.70;99.90;;;;;;5068390;28;20090;-44
2021/09/13 00:48:39;;;;;;;14.60;13.05;;;14.80;99.90;;;;;;5067767;28;20045;-44
2021/09/13 00:51:04;;;;;;;24.55;16.42;;;14.80;99.90;;;;;;5068366;28;20035;-44
2021/09/13 00:53:31;;;;;;;20.48;16.27;;;14.80;99.90;;;;;;5067288;28;20486;-43
2021/09/13 00:55:58;;;;;;;18.88;15.43;;;14.80;99.90;;;;;;5067177;28;20016;-45
2021/09/13 00:58:26;;;;;;;19.63;14.65;;;14.90;99.90;;;;;;5067600;28;20375;-45
2021/09/13 01:00:52;;;;;;;22.48;16.35;;;14.90;99.90;;;;;;5068734;28;20047;-44
2021/09/13 01:03:18;;;;;;;17.77;15.52;;;14.90;99.90;;;;;;5069135;28;20062;-43
2021/09/13 01:05:43;;;;;;;20.35;14.70;;;14.90;99.90;;;;;;5068197;28;20033;-44
2021/09/13 01:08:09;;;;;;;18.95;14.10;;;15.00;99.90;;;;;;5067578;28;20360;-44
2021/09/13 01:10:34;;;;;;;18.42;15.27;;;14.90;99.90;;;;;;5068278;28;20036;-44
2021/09/13 01:13:00;;;;;;;21.92;14.98;;;15.00;99.90;;;;;;5057613;28;20036;-45
2021/09/13 01:15:26;;;;;;;20.33;16.45;;;15.00;99.90;;;;;;5062459;28;20032;-44
2021/09/13 01:17:52;;;;;;;16.70;14.57;;;15.00;99.90;;;;;;5067536;28;20505;-43
2021/09/13 01:20:17;;;;;;;16.60;14.65;;;15.10;99.90;;;;;;5067983;28;20028;-44
2021/09/13 01:22:45;;;;;;;22.17;14.52;;;15.00;99.90;;;;;;5068175;28;20047;-43
2021/09/13 01:25:11;;;;;;;19.60;16.08;;;15.10;99.90;;;;;;5068175;28;20024;-43
2021/09/13 01:27:36;;;;;;;16.10;14.40;;;15.10;99.90;;;;;;5066005;28;20078;-43
2021/09/13 01:30:04;;;;;;;17.70;14.88;;;15.10;99.90;;;;;;5067013;28;20021;-44
2021/09/13 01:32:30;;;;;;;16.20;14.18;;;15.10;99.90;;;;;;5066789;28;20025;-43
2021/09/13 01:34:56;;;;;;;19.38;14.73;;;15.10;99.90;;;;;;5066925;28;20029;-44
2021/09/13 01:37:21;;;;;;;20.17;14.73;;;15.10;99.90;;;;;;5067386;28;20044;-44
2021/09/13 01:39:47;;;;;;;17.98;14.77;;;15.00;99.90;;;;;;5068307;28;20029;-45
2021/09/13 01:42:12;;;;;;;22.42;17.00;;;15.00;99.90;;;;;;5062585;28;20612;-45
2021/09/13 01:44:38;;;;;;;20.45;16.60;;;15.00;99.90;;;;;;5058272;28;20028;-44
2021/09/13 01:47:03;;;;;;;16.30;14.38;;;14.90;99.90;;;;;;5067295;28;20044;-43
2021/09/13 01:49:29;;;;;;;15.77;14.10;;;14.90;99.90;;;;;;5067698;28;20073;-43
2021/09/13 01:51:54;;;;;;;17.55;15.32;;;14.90;99.90;;;;;;5068068;28;20013;-44
2021/09/13 01:54:20;;;;;;;20.67;15.98;;;14.80;99.90;;;;;;5068144;28;20044;-44
2021/09/13 01:56:45;;;;;;;19.73;16.25;;;14.80;99.90;;;;;;5067234;28;20093;-45
2021/09/13 01:59:11;;;;;;;17.98;15.82;;;14.70;99.90;;;;;;5068033;28;20028;-44
2021/09/13 02:01:36;;;;;;;22.60;16.40;;;14.70;99.90;;;;;;5068394;28;20033;-44
2021/09/13 02:04:03;;;;;;;16.92;15.18;;;14.60;99.90;;;;;;5068106;28;20111;-44
2021/09/13 02:06:30;;;;;;;18.05;15.70;;;14.60;99.90;;;;;;5066302;28;20520;-43
2021/09/13 02:08:56;;;;;;;20.33;16.00;;;14.50;99.90;;;;;;5054713;28;20487;-42
2021/09/13 02:11:21;;;;;;;25.92;17.10;;;14.50;99.90;;;;;;5047803;28;20387;-42
2021/09/13 02:13:47;;;;;;;20.45;15.98;;;14.40;99.90;;;;;;5052942;28;20040;-45
2021/09/13 02:16:12;;;;;;;19.33;15.70;;;14.40;99.90;;;;;;5067548;28;20016;-45
2021/09/13 02:18:38;;;;;;;23.30;17.27;;;14.40;99.90;;;;;;5068767;28;20490;-42
2021/09/13 02:21:04;;;;;;;18.20;16.30;;;14.40;99.90;;;;;;5071501;28;20029;-44
2021/09/13 02:23:29;;;;;;;21.33;16.25;;;14.40;99.90;;;;;;5071153;28;20107;-42
2021/09/13 02:25:55;;;;;;;24.38;17.35;;;14.40;99.90;;;;;;5071058;28;20505;-43
2021/09/13 02:28:20;;;;;;;21.65;17.88;;;14.30;99.90;;;;;;5068814;28;20035;-43
2021/09/13 02:30:45;;;;;;;23.90;16.27;;;14.40;99.90;;;;;;5069696;28;20016;-43
2021/09/13 02:33:11;;;;;;;21.27;14.75;;;14.40;99.90;;;;;;5071062;28;20025;-44
2021/09/13 02:35:37;;;;;;;23.95;16.52;;;14.40;99.90;;;;;;5071000;28;20099;-43
2021/09/13 02:38:02;;;;;;;21.27;15.75;;;14.40;99.90;;;;;;5070230;28;20035;-43
2021/09/13 02:40:28;;;;;;;17.52;15.45;;;14.40;99.90;;;;;;5070860;28;20060;-45
2021/09/13 02:42:53;;;;;;;21.67;16.92;;;14.40;99.90;;;;;;5065844;28;20036;-42
2021/09/13 02:45:19;;;;;;;16.40;14.70;;;14.40;99.90;;;;;;5064354;28;20103;-43
2021/09/13 02:47:44;;;;;;;19.75;15.68;;;14.40;99.90;;;;;;5069918;28;20023;-43
2021/09/13 02:50:11;;;;;;;18.10;14.50;;;14.40;99.90;;;;;;5070753;28;20347;-43
2021/09/13 02:52:37;;;;;;;20.15;15.98;;;14.40;99.90;;;;;;5070583;28;20020;-45
2021/09/13 02:55:04;;;;;;;23.30;14.77;;;14.40;99.90;;;;;;5069224;28;20021;-44
2021/09/13 02:57:29;;;;;;;18.42;14.73;;;14.40;99.90;;;;;;5068122;28;20043;-43
2021/09/13 02:59:54;;;;;;;15.35;13.75;;;14.40;99.90;;;;;;5070533;28;20032;-45
2021/09/13 03:02:20;;;;;;;16.00;13.35;;;14.40;99.90;;;;;;5062124;28;20029;-46
2021/09/13 03:04:46;;;;;;;17.60;14.52;;;14.40;99.90;;;;;;5041563;28;20045;-43
2021/09/13 03:07:12;;;;;;;23.05;16.05;;;14.50;99.90;;;;;;5045259;28;20028;-44
2021/09/13 03:09:38;;;;;;;19.75;13.95;;;14.50;99.90;;;;;;5044772;28;20017;-44
2021/09/13 03:12:04;;;;;;;20.02;14.35;;;14.50;99.90;;;;;;5044953;28;20429;-46
2021/09/13 03:14:31;;;;;;;19.38;12.88;;;14.40;99.90;;;;;;5062100;28;20038;-43
2021/09/13 03:16:57;;;;;;;24.90;14.63;;;14.40;99.90;;;;;;5069237;28;20024;-43
2021/09/13 03:19:22;;;;;;;16.92;12.40;;;14.40;99.90;;;;;;5069027;28;20110;-42
2021/09/13 03:21:48;;;;;;;19.55;13.27;;;14.40;99.90;;;;;;5069320;28;20055;-43
2021/09/13 03:24:14;;;;;;;16.80;13.88;;;14.30;99.90;;;;;;5070090;28;20032;-44
2021/09/13 03:26:39;;;;;;;21.25;15.43;;;14.30;99.90;;;;;;5069331;28;20024;-43
2021/09/13 03:29:05;;;;;;;16.90;15.05;;;14.30;99.90;;;;;;5069081;28;20025;-43
2021/09/13 03:31:30;;;;;;;20.92;17.27;;;14.20;99.90;;;;;;5069357;28;20229;-43
2021/09/13 03:33:56;;;;;;;26.55;17.75;;;14.20;99.90;;;;;;5069921;28;20233;-43
2021/09/13 03:36:21;;;;;;;19.65;17.02;;;14.20;99.90;;;;;;5069496;28;20020;-43
2021/09/13 03:38:47;;;;;;;24.05;17.88;;;14.10;99.90;;;;;;5053893;28;20437;-43
2021/09/13 03:41:12;;;;;;;25.90;19.63;;;14.10;99.90;;;;;;5060869;28;20068;-42
2021/09/13 03:43:38;;;;;;;24.40;19.70;;;14.00;99.90;;;;;;5069233;28;20419;-43
2021/09/13 03:46:03;;;;;;;28.83;20.02;;;14.00;99.90;;;;;;5069287;28;20037;-44
2021/09/13 03:48:29;;;;;;;26.30;19.45;;;13.90;99.90;;;;;;5069182;28;20091;-42
2021/09/13 03:50:54;;;;;;;29.50;22.02;;;13.90;99.90;;;;;;5069501;28;20425;-42
2021/09/13 03:53:20;;;;;;;30.10;23.65;;;13.90;99.90;;;;;;5069575;28;20056;-43
2021/09/13 03:55:46;;;;;;;33.33;24.17;;;13.80;99.90;;;;;;5068087;28;20039;-43
2021/09/13 03:58:11;;;;;;;36.00;25.05;;;13.80;99.90;;;;;;5067375;28;20062;-43
2021/09/13 04:00:37;;;;;;;28.67;23.13;;;13.80;99.90;;;;;;5067826;28;20031;-43
2021/09/13 04:03:05;;;;;;;31.52;24.80;;;13.80;99.90;;;;;;5069176;28;20031;-43
2021/09/13 04:05:30;;;;;;;30.08;23.88;;;13.70;99.90;;;;;;5069395;28;20352;-42
2021/09/13 04:10:59;;;;;;;38.58;26.58;;;13.70;99.90;;;;;;5060798;28;20012;-43
2021/09/13 04:13:24;;;;;;;35.22;25.52;;;13.70;99.90;;;;;;5051388;28;20038;-43
2021/09/13 04:15:50;;;;;;;37.25;27.98;;;13.70;99.90;;;;;;5060293;28;20421;-42
2021/09/13 04:18:16;;;;;;;40.00;27.08;;;13.70;99.90;;;;;;5068189;28;20577;-43
2021/09/13 04:20:41;;;;;;;32.63;26.65;;;13.70;99.90;;;;;;5068839;28;20021;-42
2021/09/13 04:23:07;;;;;;;37.25;28.38;;;13.70;99.90;;;;;;5068814;28;20033;-42
2021/09/13 04:25:32;;;;;;;41.17;27.30;;;13.60;99.90;;;;;;5069128;28;20036;-42
2021/09/13 04:27:58;;;;;;;39.53;28.10;;;13.60;99.90;;;;;;5066275;28;20024;-43
2021/09/13 04:30:25;;;;;;;34.92;26.35;;;13.60;99.90;;;;;;5068755;28;20046;-44
2021/09/13 04:32:51;;;;;;;38.00;27.40;;;13.60;99.90;;;;;;5068749;28;20032;-42
2021/09/13 04:35:16;;;;;;;39.17;26.27;;;13.60;99.90;;;;;;5068826;28;20099;-42
2021/09/13 04:37:42;;;;;;;37.63;25.83;;;13.50;99.90;;;;;;5068376;28;20302;-42
2021/09/13 04:40:08;;;;;;;41.47;29.05;;;13.50;99.90;;;;;;5068587;28;20028;-42
2021/09/13 04:42:33;;;;;;;34.85;26.65;;;13.50;99.90;;;;;;5054759;28;20021;-42
2021/09/13 04:44:59;;;;;;;39.30;28.65;;;13.50;99.90;;;;;;5057691;28;20052;-43
2021/09/13 04:47:24;;;;;;;39.22;28.38;;;13.40;99.90;;;;;;5066457;28;20024;-43
2021/09/13 04:49:50;;;;;;;40.67;29.15;;;13.50;99.90;;;;;;5068033;28;20036;-43
2021/09/13 04:52:15;;;;;;;37.83;28.08;;;13.50;99.90;;;;;;5066993;28;20080;-43
2021/09/13 04:54:41;;;;;;;35.28;26.83;;;13.50;99.90;;;;;;5068275;28;20024;-43
2021/09/13 04:57:06;;;;;;;44.15;27.15;;;13.50;99.90;;;;;;5067590;28;20056;-42
2021/09/13 04:59:32;;;;;;;37.55;26.35;;;13.50;99.90;;;;;;5068308;28;20032;-42
2021/09/13 05:01:57;;;;;;;37.00;26.35;;;13.50;99.90;;;;;;5067990;28;20482;-43
2021/09/13 05:04:23;;;;;;;40.55;26.23;;;13.50;99.90;;;;;;5068142;28;20095;-43
2021/09/13 05:06:48;;;;;;;42.30;26.58;;;13.50;99.90;;;;;;5054818;28;20104;-42
2021/09/13 05:09:14;;;;;;;32.47;22.42;;;13.60;99.90;;;;;;5046964;28;20078;-42
2021/09/13 05:11:41;;;;;;;36.55;24.38;;;13.60;99.90;;;;;;5048217;28;20025;-42
2021/09/13 05:14:06;;;;;;;39.53;25.80;;;13.60;99.90;;;;;;5032918;28;20024;-42
2021/09/13 05:16:33;;;;;;;29.73;22.08;;;13.60;99.90;;;;;;5058694;28;20033;-42
2021/09/13 05:18:59;;;;;;;33.20;22.95;;;13.70;99.90;;;;;;5066654;28;20020;-42
2021/09/13 05:21:25;;;;;;;27.65;21.45;;;13.70;99.90;;;;;;5066939;28;20035;-42
2021/09/13 05:23:51;;;;;;;36.08;22.10;;;13.70;99.90;;;;;;5065919;28;20036;-43
2021/09/13 05:26:16;;;;;;;29.88;20.95;;;13.70;99.90;;;;;;5067440;28;20032;-42
2021/09/13 05:28:42;;;;;;;25.83;19.73;;;13.80;99.90;;;;;;5065037;28;20028;-42
2021/09/13 05:31:08;;;;;;;27.77;20.13;;;13.80;99.90;;;;;;5067812;28;20060;-43
2021/09/13 05:33:33;;;;;;;30.55;18.98;;;13.90;99.90;;;;;;5067674;28;20029;-42
2021/09/13 05:35:58;;;;;;;23.95;17.85;;;13.90;99.90;;;;;;5066312;28;20196;-42
2021/09/13 05:38:24;;;;;;;27.35;19.25;;;13.90;99.90;;;;;;5066901;28;20043;-43
2021/09/13 05:40:51;;;;;;;22.63;18.02;;;14.00;99.90;;;;;;5065070;28;20051;-42
2021/09/13 05:43:16;;;;;;;26.35;18.00;;;14.00;99.90;;;;;;5052675;28;20103;-42
2021/09/13 05:45:42;;;;;;;25.35;18.67;;;14.10;99.90;;;;;;5058217;28;20112;-42
2021/09/13 05:48:07;;;;;;;23.25;17.48;;;14.10;99.90;;;;;;5066551;28;20021;-42
2021/09/13 05:50:33;;;;;;;25.65;16.33;;;14.10;99.90;;;;;;5067461;28;20040;-42
2021/09/13 05:52:58;;;;;;;21.73;16.52;;;14.10;99.90;;;;;;5056959;28;20028;-43
2021/09/13 05:55:24;;;;;;;25.10;16.92;;;14.20;99.90;;;;;;5046793;28;20075;-42
2021/09/13 05:57:50;;;;;;;22.45;16.23;;;14.20;99.90;;;;;;5050450;28;20029;-43
2021/09/13 06:00:16;;;;;;;28.80;15.38;;;14.30;99.90;;;;;;5051048;28;20021;-44
2021/09/13 06:02:42;;;;;;;29.15;17.45;;;14.30;99.90;;;;;;5051007;28;20024;-43
2021/09/13 06:05:08;;;;;;;22.35;16.10;;;14.40;99.90;;;;;;5051009;28;20021;-43
2021/09/13 06:07:33;;;;;;;23.33;16.48;;;14.40;99.90;;;;;;5050421;28;20398;-43
2021/09/13 06:09:59;;;;;;;25.10;16.75;;;14.50;99.90;;;;;;5050904;28;20025;-43
2021/09/13 06:12:24;;;;;;;30.35;16.88;;;14.40;99.90;;;;;;5046099;28;20025;-42
2021/09/13 06:14:51;;;;;;;30.60;17.55;;;14.40;99.90;;;;;;5057681;28;20025;-42
2021/09/13 06:17:17;;;;;;;24.27;16.13;;;14.40;99.90;;;;;;5059589;28;20122;-43
2021/09/13 06:19:42;;;;;;;29.70;16.65;;;14.40;99.90;;;;;;5062773;28;20107;-43
2021/09/13 06:22:09;;;;;;;28.70;16.58;;;14.40;99.90;;;;;;5061530;28;20056;-43
2021/09/13 06:24:39;;;;;;;28.67;16.25;;;14.40;99.90;;;;;;5066114;28;20028;-43
2021/09/13 06:27:04;;;;;;;32.07;17.43;;;14.40;99.90;;;;;;5069970;28;20123;-42
2021/09/13 06:29:30;;;;;;;29.30;18.83;;;14.40;99.90;;;;;;5069243;28;20398;-44
2021/09/13 06:31:55;;;;;;;27.35;17.17;;;14.50;99.90;;;;;;5053624;28;20309;-43
2021/09/13 06:34:21;;;;;;;28.35;17.27;;;14.40;99.90;;;;;;5062111;28;20104;-45
2021/09/13 06:36:47;;;;;;;32.90;15.73;;;14.50;99.90;;;;;;5069606;28;20020;-43
2021/09/13 06:39:13;;;;;;;29.40;17.95;;;14.50;99.90;;;;;;5070323;28;20355;-43
2021/09/13 06:41:38;;;;;;;32.88;16.75;;;14.50;99.90;;;;;;5069059;28;20017;-44
2021/09/13 06:44:04;;;;;;;30.98;16.27;;;14.60;99.90;;;;;;5070142;28;20046;-44
2021/09/13 06:46:41;;;;;;;26.00;16.08;;;14.60;99.90;;;;;;5069673;28;20025;-43
2021/09/13 06:49:08;;;;;;;25.55;14.75;;;14.50;99.90;;;;;;5061338;28;20025;-43
2021/09/13 06:51:34;;;;;;;25.83;14.75;;;14.60;99.90;;;;;;5069996;28;20436;-46
2021/09/13 06:53:59;;;;;;;26.08;15.35;;;14.60;99.90;;;;;;5070206;28;20037;-45
2021/09/13 06:56:25;;;;;;;25.33;14.45;;;14.70;99.90;;;;;;5057833;28;20067;-43
2021/09/13 06:58:52;;;;;;;27.35;14.93;;;14.70;99.90;;;;;;5055625;28;20029;-44
2021/09/13 07:01:21;;;;;;;22.67;14.48;;;14.70;99.90;;;;;;5070147;28;20444;-45
2021/09/13 07:03:47;;;;;;;21.48;13.15;;;14.80;99.90;;;;;;5068716;28;20023;-45
2021/09/13 07:06:13;;;;;;;25.80;14.70;;;14.90;99.90;;;;;;5050185;28;20072;-43
2021/09/13 07:08:38;;;;;;;25.13;15.60;;;14.90;99.90;;;;;;5065377;28;20394;-46
2021/09/13 07:11:05;;;;;;;30.25;14.43;;;15.00;99.90;;;;;;5069535;28;20071;-44
2021/09/13 07:13:31;;;;;;;23.40;13.20;;;15.10;99.90;;;;;;5053541;28;20032;-46
2021/09/13 07:15:56;;;;;;;22.98;12.98;;;15.10;99.90;;;;;;5068235;28;20013;-44
2021/09/13 07:18:22;;;;;;;17.83;12.88;;;15.20;99.90;;;;;;5068949;28;20182;-43
2021/09/13 07:20:47;;;;;;;17.67;11.77;;;15.30;99.90;;;;;;5069734;28;20017;-46
2021/09/13 07:23:13;;;;;;;16.63;11.15;;;15.30;99.90;;;;;;5069601;28;20652;-43
2021/09/13 07:25:38;;;;;;;24.63;12.23;;;15.30;99.90;;;;;;5068353;28;20417;-44
2021/09/13 07:28:04;;;;;;;14.80;10.90;;;15.40;99.90;;;;;;5068269;28;20032;-43
2021/09/13 07:30:30;;;;;;;24.25;12.63;;;15.40;99.90;;;;;;5068259;28;20031;-45
2021/09/13 07:32:55;;;;;;;23.50;11.88;;;15.40;99.90;;;;;;5064579;28;20029;-44
2021/09/13 07:35:21;;;;;;;20.35;12.27;;;15.40;99.90;;;;;;5062778;28;20032;-45
2021/09/13 07:37:47;;;;;;;19.48;13.00;;;15.40;99.90;;;;;;5056454;28;20491;-43
2021/09/13 07:40:12;;;;;;;15.65;12.57;;;15.40;99.90;;;;;;5059658;28;20471;-43
2021/09/13 07:42:40;;;;;;;20.45;13.35;;;15.40;99.90;;;;;;5052219;28;20021;-44
2021/09/13 07:45:06;;;;;;;21.40;14.18;;;15.40;99.90;;;;;;5059359;28;20359;-43
2021/09/13 07:47:32;;;;;;;22.13;14.48;;;15.50;99.90;;;;;;5065098;28;20078;-43
2021/09/13 07:49:59;;;;;;;29.25;16.25;;;15.50;99.90;;;;;;5060138;28;20024;-45
2021/09/13 07:52:24;;;;;;;30.92;15.07;;;15.50;99.90;;;;;;5066987;28;20064;-43
2021/09/13 07:54:50;;;;;;;26.33;14.82;;;15.40;99.90;;;;;;5068666;28;20059;-43
2021/09/13 07:57:15;;;;;;;26.20;15.45;;;15.40;99.90;;;;;;5049656;28;20071;-43
2021/09/13 07:59:41;;;;;;;30.92;15.90;;;15.40;99.90;;;;;;5052369;28;20017;-44
2021/09/13 08:02:07;;;;;;;22.98;14.30;;;15.40;99.90;;;;;;5065263;28;20086;-43
2021/09/13 08:04:32;;;;;;;28.48;16.05;;;15.40;99.90;;;;;;5059675;28;20436;-43
2021/09/13 08:06:58;;;;;;;22.33;15.00;;;15.50;99.90;;;;;;5067543;28;20032;-43
2021/09/13 08:09:23;;;;;;;27.95;16.25;;;15.40;99.90;;;;;;5059101;28;20033;-44
2021/09/13 08:11:49;;;;;;;23.63;15.73;;;15.50;99.90;;;;;;5036684;28;20430;-46
2021/09/13 08:14:14;;;;;;;32.88;17.92;;;15.50;99.90;;;;;;5061048;28;20075;-43
2021/09/13 08:16:40;;;;;;;28.17;16.75;;;15.50;99.90;;;;;;5061523;28;20051;-46
2021/09/13 08:19:25;;;;;;;25.80;15.98;;;15.50;99.90;;;;;;5058574;28;20020;-46
2021/09/13 08:21:51;;;;;;;30.83;19.00;;;15.50;99.90;;;;;;5048802;28;20098;-46
2021/09/13 08:24:16;;;;;;;27.25;16.77;;;15.60;99.90;;;;;;5065432;28;20040;-43
2021/09/13 08:26:42;;;;;;;26.05;17.60;;;15.60;99.90;;;;;;5066027;28;20037;-44
2021/09/13 08:29:13;;;;;;;31.08;17.05;;;15.70;99.90;;;;;;5067850;28;20031;-43
2021/09/13 08:31:38;;;;;;;31.08;17.30;;;15.80;99.90;;;;;;5067282;28;20056;-43
2021/09/13 08:34:04;;;;;;;26.80;15.55;;;15.80;99.90;;;;;;5055044;28;20489;-43
2021/09/13 08:36:29;;;;;;;26.08;15.85;;;15.90;99.90;;;;;;5050414;28;20104;-43
2021/09/13 08:38:55;;;;;;;24.45;14.40;;;15.90;99.90;;;;;;5066477;28;20029;-42
2021/09/13 08:41:20;;;;;;;24.45;15.90;;;15.90;99.90;;;;;;5067933;28;20486;-44
2021/09/13 08:43:47;;;;;;;23.33;14.52;;;15.90;99.90;;;;;;5067781;28;20043;-44
2021/09/13 08:46:36;;;;;;;22.48;13.35;;;16.00;99.90;;;;;;5063176;28;20035;-43
2021/09/13 08:49:07;;;;;;;21.58;13.57;;;16.10;99.90;;;;;;5058138;28;20467;-43
2021/09/13 08:51:33;;;;;;;23.02;13.93;;;16.10;99.90;;;;;;5068279;28;20021;-45
2021/09/13 08:54:04;;;;;;;21.27;13.98;;;16.10;99.90;;;;;;5066465;28;20017;-43
2021/09/13 08:56:52;;;;;;;25.55;14.70;;;16.10;99.90;;;;;;5065898;28;20506;-42
2021/09/13 08:59:23;;;;;;;29.73;14.20;;;16.10;99.90;;;;;;5064840;28;20067;-43
2021/09/13 09:01:51;;;;;;;20.02;13.27;;;15.90;99.90;;;;;;5040301;28;20449;-44
2021/09/13 09:04:17;;;;;;;19.00;12.73;;;16.00;99.90;;;;;;5043498;28;20060;-43
2021/09/13 09:06:44;;;;;;;32.92;13.93;;;16.10;99.90;;;;;;5051628;28;20078;-43
2021/09/13 09:09:12;;;;;;;18.73;12.95;;;16.10;99.90;;;;;;5027381;28;20025;-43
2021/09/13 09:11:56;;;;;;;20.27;13.32;;;16.10;99.90;;;;;;5043157;28;20436;-43
2021/09/13 09:14:44;;;;;;;26.48;14.27;;;16.20;99.90;;;;;;5038859;28;20025;-43
2021/09/13 09:17:20;;;;;;;26.90;13.35;;;16.20;99.90;;;;;;5048835;28;20107;-43
2021/09/13 09:19:46;;;;;;;28.85;16.27;;;16.20;99.90;;;;;;5057982;28;20115;-44
2021/09/13 09:22:25;;;;;;;25.10;14.30;;;16.20;99.90;;;;;;5067631;28;20035;-43
2021/09/13 09:24:53;;;;;;;19.33;12.30;;;16.20;99.90;;;;;;5067782;28;20021;-43
2021/09/13 09:27:19;;;;;;;18.17;12.48;;;16.20;99.90;;;;;;5068348;28;20036;-43
2021/09/13 09:29:44;;;;;;;34.50;15.25;;;16.30;99.90;;;;;;5071409;28;20029;-44
2021/09/13 09:32:25;;;;;;;28.17;15.43;;;16.30;99.90;;;;;;5068878;28;20288;-44
2021/09/13 09:34:52;;;;;;;30.05;15.95;;;16.30;99.90;;;;;;5063376;28;20043;-46
2021/09/13 09:37:18;;;;;;;28.05;16.13;;;16.30;99.90;;;;;;5065813;28;20020;-46
2021/09/13 09:39:53;;;;;;;28.65;15.85;;;16.40;99.90;;;;;;5056602;28;20021;-43
2021/09/13 09:42:33;;;;;;;31.73;17.58;;;16.40;99.90;;;;;;5071863;28;20032;-43
2021/09/13 09:45:01;;;;;;;31.50;16.13;;;16.40;99.90;;;;;;5071672;28;20028;-43
2021/09/13 09:47:27;;;;;;;27.73;15.82;;;16.50;99.90;;;;;;5068012;28;20024;-43
2021/09/13 09:49:55;;;;;;;32.03;16.48;;;16.60;99.90;;;;;;5062852;28;20077;-43
2021/09/13 09:52:41;;;;;;;30.08;17.10;;;16.60;99.90;;;;;;5071569;28;20028;-44
2021/09/13 09:55:17;;;;;;;34.15;16.88;;;16.70;99.90;;;;;;5071719;28;20466;-43
2021/09/13 09:58:04;;;;;;;39.90;17.52;;;16.80;99.90;;;;;;5071705;28;20070;-44
2021/09/13 10:00:31;;;;;;;33.05;17.10;;;16.70;99.90;;;;;;5070309;28;20492;-46
2021/09/13 10:02:56;;;;;;;27.33;16.42;;;16.70;99.90;;;;;;5060971;28;20060;-43
2021/09/13 10:05:24;;;;;;;28.42;15.20;;;16.80;99.90;;;;;;5072023;28;20107;-42
2021/09/13 10:07:50;;;;;;;33.60;17.00;;;16.90;99.90;;;;;;5061906;28;20083;-44
2021/09/13 10:10:17;;;;;;;33.58;16.42;;;17.00;99.90;;;;;;5057247;28;20033;-43
2021/09/13 10:12:42;;;;;;;30.20;16.85;;;17.00;99.90;;;;;;5031836;28;20045;-43
2021/09/13 10:15:09;;;;;;;26.67;14.07;;;17.10;99.90;;;;;;5050711;28;20071;-43
2021/09/13 10:17:34;;;;;;;26.27;15.02;;;17.10;99.90;;;;;;5066740;28;20456;-43
2021/09/13 10:20:02;;;;;;;28.63;17.30;;;17.10;99.90;;;;;;5072019;28;20040;-43
2021/09/13 10:22:30;;;;;;;31.38;16.35;;;17.10;99.90;;;;;;5072030;28;20085;-44
2021/09/13 10:24:55;;;;;;;23.77;14.63;;;17.10;99.90;;;;;;5071267;28;20175;-43
2021/09/13 10:27:21;;;;;;;35.60;16.42;;;17.10;99.90;;;;;;5070133;28;20490;-43
2021/09/13 10:30:07;;;;;;;20.67;13.38;;;17.20;99.90;;;;;;5070424;28;20035;-43
2021/09/13 10:32:33;;;;;;;28.67;14.82;;;17.30;99.90;;;;;;5070476;28;20039;-43
2021/09/13 10:34:58;;;;;;;27.88;15.48;;;17.60;99.90;;;;;;5067085;28;20037;-43
2021/09/13 10:37:37;;;;;;;24.15;14.00;;;17.90;99.90;;;;;;5057114;28;20043;-43
2021/09/13 10:40:18;;;;;;;22.75;14.75;;;17.90;99.90;;;;;;5048700;28;20029;-43
2021/09/13 10:42:52;;;;;;;27.75;14.90;;;17.90;99.90;;;;;;5049808;28;20557;-44
2021/09/13 10:45:29;;;;;;;21.08;13.43;;;17.90;99.90;;;;;;5050046;28;20021;-43
2021/09/13 10:47:57;;;;;;;21.13;13.20;;;17.90;99.90;;;;;;5064131;28;20028;-44
2021/09/13 10:50:26;;;;;;;24.27;13.75;;;17.90;99.90;;;;;;5052200;28;20017;-43
2021/09/13 10:52:54;;;;;;;20.75;11.77;;;17.90;99.90;;;;;;5067922;28;20075;-43
2021/09/13 10:55:27;;;;;;;22.67;12.02;;;17.90;99.90;;;;;;5069887;28;20028;-44
2021/09/13 10:57:54;;;;;;;23.60;12.25;;;17.80;99.90;;;;;;5069330;28;20036;-45
2021/09/13 11:00:54;;;;;;;22.88;11.93;;;17.80;99.90;;;;;;5069702;28;20390;-42
2021/09/13 11:06:07;;;;;;;23.75;12.05;;;17.70;99.90;;;;;;5067332;28;19904;-43
2021/09/13 11:08:36;;;;;;;16.88;10.63;;;17.60;99.90;;;;;;5069526;28;20052;-43
2021/09/13 11:11:01;;;;;;;24.40;12.50;;;17.70;99.90;;;;;;5069647;28;20390;-43
2021/09/13 11:13:27;;;;;;;19.42;11.13;;;17.80;99.90;;;;;;5057297;28;20021;-42
2021/09/13 11:15:53;;;;;;;19.20;10.73;;;17.90;99.90;;;;;;5057081;28;20525;-43
2021/09/13 11:18:42;;;;;;;18.95;10.60;;;17.90;99.90;;;;;;5068865;28;20024;-45
2021/09/13 11:21:22;;;;;;;16.23;8.80;;;17.90;99.90;;;;;;5069426;28;20046;-44
2021/09/13 11:23:51;;;;;;;10.68;6.18;;;17.90;99.90;;;;;;5069785;28;20402;-45
2021/09/13 11:26:18;;;;;;;9.15;5.82;;;17.90;99.90;;;;;;5069410;28;20447;-43
2021/09/13 11:28:54;;;;;;;10.38;5.82;;;17.90;99.90;;;;;;5065937;28;20070;-44
2021/09/13 11:31:51;;;;;;;9.05;5.13;;;18.30;99.90;;;;;;5069763;28;20235;-42
2021/09/13 11:34:16;;;;;;;8.23;5.22;;;18.60;99.90;;;;;;5065066;28;20028;-42
2021/09/13 11:37:14;;;;;;;7.05;4.05;;;19.10;99.90;;;;;;5068639;28;20077;-43
2021/09/13 11:39:51;;;;;;;8.93;4.35;;;19.40;99.90;;;;;;5068028;28;20070;-43
2021/09/13 11:42:25;;;;;;;10.15;4.65;;;19.70;99.90;;;;;;5068822;28;20020;-42
2021/09/13 11:44:52;;;;;;;10.30;4.63;;;19.90;99.90;;;;;;5052772;28;20013;-43
2021/09/13 11:47:20;;;;;;;6.70;3.85;;;20.00;99.90;;;;;;5051912;28;20058;-44
2021/09/13 11:49:48;;;;;;;9.18;4.75;;;20.10;99.90;;;;;;5060437;28;20103;-44
2021/09/13 11:52:31;;;;;;;8.98;4.60;;;20.20;99.90;;;;;;5066854;28;20046;-43
2021/09/13 11:55:01;;;;;;;7.57;3.72;;;20.10;99.90;;;;;;5069155;28;20024;-42
2021/09/13 11:57:46;;;;;;;8.30;4.18;;;20.10;99.90;;;;;;5068117;28;20029;-43
2021/09/13 12:00:16;;;;;;;6.43;4.15;;;19.90;99.90;;;;;;5068733;28;20051;-43
2021/09/13 12:03:02;;;;;;;6.38;4.13;;;19.90;99.90;;;;;;5062576;28;20034;-43
2021/09/13 12:05:33;;;;;;;6.85;4.55;;;19.90;99.90;;;;;;5057383;28;20025;-45
2021/09/13 12:08:01;;;;;;;7.07;4.05;;;19.80;99.90;;;;;;5067954;28;20384;-44
2021/09/13 12:10:26;;;;;;;7.45;4.50;;;19.90;99.90;;;;;;5068029;28;20344;-42
2021/09/13 12:12:54;;;;;;;7.25;4.20;;;20.10;99.90;;;;;;5038261;28;20128;-44
2021/09/13 12:15:24;;;;;;;11.68;5.10;;;20.10;99.90;;;;;;5041834;28;20017;-43
2021/09/13 12:17:52;;;;;;;6.07;4.30;;;20.20;99.90;;;;;;5042088;28;20017;-43
2021/09/13 12:20:34;;;;;;;8.43;4.18;;;20.50;99.90;;;;;;5038619;28;20178;-43
2021/09/13 12:23:10;;;;;;;5.93;4.53;;;20.80;99.90;;;;;;5037920;28;20097;-42
2021/09/13 12:25:45;;;;;;;9.07;4.20;;;20.80;99.90;;;;;;5037962;28;20028;-43
2021/09/13 12:28:12;;;;;;;8.60;4.57;;;20.90;99.90;;;;;;5038255;28;20017;-43
2021/09/13 12:30:41;;;;;;;10.20;3.97;;;21.00;99.90;;;;;;5037301;28;20020;-43
2021/09/13 12:33:08;;;;;;;6.90;2.95;;;21.40;99.90;;;;;;5036642;28;20470;-45
2021/09/13 12:35:41;;;;;;;6.10;2.63;;;21.80;99.90;;;;;;5037506;28;20100;-44